Time;durP1;ratioP1;P1;durP2;ratioP2;P2;SDS_P1;SDS_P2;PMS_P1;PMS_P2;Temp;Humidity;BMP_temperature;BMP_pressure;BME280_temperature;BME280_humidity;BME280_pressure;Samples;Min_cycle;Max_cycle;Signal;HPM_P1;HPM_P2
2022/03/05 00:01:00;;;;;;;15.53;12.17;;;-0.80;99.90;;;;;;5032071;28;20987;-65
2022/03/05 00:03:27;;;;;;;17.20;12.10;;;-0.80;99.90;;;;;;5032148;28;20574;-64
2022/03/05 00:05:55;;;;;;;18.67;11.70;;;-0.80;99.90;;;;;;5031960;28;20441;-65
2022/03/05 00:08:23;;;;;;;17.17;12.43;;;-0.90;99.90;;;;;;5031830;28;20536;-65
2022/03/05 00:10:50;;;;;;;20.83;13.57;;;-0.90;99.90;;;;;;5031881;28;20472;-66
2022/03/05 00:13:17;;;;;;;19.90;12.50;;;-0.80;99.90;;;;;;5031773;28;20438;-65
2022/03/05 00:15:44;;;;;;;14.37;11.10;;;-0.90;99.90;;;;;;5031551;28;20452;-65
2022/03/05 00:18:11;;;;;;;19.90;13.10;;;-1.00;99.90;;;;;;5031496;28;21005;-64
2022/03/05 00:20:38;;;;;;;20.10;12.57;;;-1.10;99.90;;;;;;5031941;28;20560;-65
2022/03/05 00:23:06;;;;;;;16.10;11.90;;;-1.10;99.90;;;;;;5031732;28;20516;-65
2022/03/05 00:25:33;;;;;;;19.87;12.83;;;-1.10;99.90;;;;;;5031298;28;20453;-65
2022/03/05 00:28:00;;;;;;;20.33;13.50;;;-1.10;99.90;;;;;;5031494;28;20491;-65
2022/03/05 00:30:27;;;;;;;22.03;12.80;;;-1.10;99.90;;;;;;5031408;28;20508;-65
2022/03/05 00:32:54;;;;;;;21.40;11.53;;;-1.10;99.90;;;;;;5032074;28;20448;-65
2022/03/05 00:35:21;;;;;;;20.63;12.47;;;-1.10;99.90;;;;;;5031492;28;20448;-65
2022/03/05 00:37:48;;;;;;;16.90;11.30;;;-1.10;99.90;;;;;;5031657;28;20831;-65
2022/03/05 00:40:17;;;;;;;20.23;12.10;;;-1.20;99.90;;;;;;5031491;28;20826;-65
2022/03/05 00:42:44;;;;;;;18.27;12.77;;;-1.20;99.90;;;;;;5031425;28;20492;-65
2022/03/05 00:45:11;;;;;;;18.57;11.77;;;-1.20;99.90;;;;;;5031214;28;20456;-65
2022/03/05 00:47:38;;;;;;;18.53;11.33;;;-1.20;99.90;;;;;;5031689;28;20440;-66
2022/03/05 00:50:07;;;;;;;17.20;12.40;;;-1.20;99.90;;;;;;5031086;28;20457;-65
2022/03/05 00:52:34;;;;;;;17.23;12.90;;;-1.10;99.90;;;;;;5031124;28;20449;-65
2022/03/05 00:55:01;;;;;;;20.37;13.07;;;-1.10;99.90;;;;;;5030836;28;20543;-66
2022/03/05 00:57:29;;;;;;;17.40;13.00;;;-1.10;99.90;;;;;;5031327;28;20444;-65
2022/03/05 00:59:56;;;;;;;15.93;12.17;;;-1.10;99.90;;;;;;5031635;28;20449;-65
2022/03/05 01:02:23;;;;;;;14.47;11.57;;;-1.10;99.90;;;;;;5031080;28;20880;-65
2022/03/05 01:04:50;;;;;;;16.17;10.57;;;-1.10;99.90;;;;;;5030757;28;20459;-65
2022/03/05 01:07:17;;;;;;;14.27;11.07;;;-1.10;99.90;;;;;;5031161;28;20453;-65
2022/03/05 01:09:44;;;;;;;20.70;11.37;;;-1.20;99.90;;;;;;5030942;28;20448;-65
2022/03/05 01:12:11;;;;;;;17.27;11.60;;;-1.20;99.90;;;;;;5031053;28;20487;-64
2022/03/05 01:14:42;;;;;;;15.47;10.30;;;-1.30;99.90;;;;;;5031054;28;20451;-65
2022/03/05 01:17:09;;;;;;;18.70;11.63;;;-1.30;99.90;;;;;;5031483;28;20463;-65
2022/03/05 01:19:36;;;;;;;22.23;11.93;;;-1.30;99.90;;;;;;5031121;28;20447;-65
2022/03/05 01:22:03;;;;;;;19.80;12.63;;;-1.30;99.90;;;;;;5030731;28;20472;-65
2022/03/05 01:24:30;;;;;;;14.20;10.47;;;-1.30;99.90;;;;;;5030730;28;20567;-65
2022/03/05 01:26:56;;;;;;;16.50;11.30;;;-1.30;99.90;;;;;;5030889;28;20445;-65
2022/03/05 01:29:23;;;;;;;23.20;12.20;;;-1.30;99.90;;;;;;5030665;28;20449;-65
2022/03/05 01:31:52;;;;;;;18.47;12.63;;;-1.30;99.90;;;;;;5030671;28;20514;-65
2022/03/05 01:34:19;;;;;;;14.20;10.37;;;-1.40;99.90;;;;;;5030644;28;20463;-65
2022/03/05 01:36:46;;;;;;;18.07;12.90;;;-1.40;99.90;;;;;;5030575;28;20449;-65
2022/03/05 01:39:14;;;;;;;19.13;12.30;;;-1.40;99.90;;;;;;5030777;28;20452;-65
2022/03/05 01:41:41;;;;;;;17.87;11.80;;;-1.30;99.90;;;;;;5030551;28;20499;-65
2022/03/05 01:44:08;;;;;;;23.17;13.33;;;-1.20;99.90;;;;;;5030314;28;20490;-65
2022/03/05 01:46:36;;;;;;;17.70;11.50;;;-1.20;99.90;;;;;;5030659;28;20470;-66
2022/03/05 01:49:06;;;;;;;18.70;11.93;;;-1.30;99.90;;;;;;5030481;28;20528;-65
2022/03/05 01:51:33;;;;;;;16.27;12.00;;;-1.40;99.90;;;;;;5030388;28;20483;-65
2022/03/05 01:54:00;;;;;;;18.43;12.60;;;-1.50;99.90;;;;;;5030440;28;20441;-65
2022/03/05 01:56:29;;;;;;;18.67;12.57;;;-1.50;99.90;;;;;;5030079;28;20449;-65
2022/03/05 01:58:56;;;;;;;15.77;12.97;;;-1.50;99.90;;;;;;5030467;28;20449;-65
2022/03/05 02:01:24;;;;;;;19.40;12.33;;;-1.60;99.90;;;;;;5030320;28;20465;-65
2022/03/05 02:03:52;;;;;;;20.20;12.93;;;-1.70;99.90;;;;;;5029970;28;20575;-65
2022/03/05 02:06:20;;;;;;;20.53;12.93;;;-1.80;99.90;;;;;;5029975;28;20461;-65
2022/03/05 02:08:48;;;;;;;22.70;13.10;;;-1.90;99.90;;;;;;5030510;28;20456;-65
2022/03/05 02:11:15;;;;;;;18.00;10.50;;;-2.00;99.90;;;;;;5030578;28;20461;-65
2022/03/05 02:13:42;;;;;;;20.77;12.03;;;-2.00;99.90;;;;;;5030566;28;20528;-65
2022/03/05 02:16:08;;;;;;;20.27;13.77;;;-2.00;99.90;;;;;;5030382;28;20457;-65
2022/03/05 02:18:35;;;;;;;22.40;12.60;;;-2.10;99.90;;;;;;5030280;28;20448;-66
2022/03/05 02:21:04;;;;;;;19.70;13.00;;;-2.10;99.90;;;;;;5030173;28;20465;-65
2022/03/05 02:23:31;;;;;;;20.53;12.53;;;-2.10;99.90;;;;;;5030010;28;20493;-66
2022/03/05 02:25:59;;;;;;;20.30;11.80;;;-2.20;99.90;;;;;;5029574;28;20449;-65
2022/03/05 02:28:27;;;;;;;20.40;12.33;;;-2.20;99.90;;;;;;5029936;28;20459;-65
2022/03/05 02:30:55;;;;;;;19.87;12.83;;;-2.30;99.90;;;;;;5029666;28;20603;-65
2022/03/05 02:33:22;;;;;;;25.13;13.67;;;-2.20;99.90;;;;;;5029921;28;20520;-65
2022/03/05 02:35:49;;;;;;;19.27;13.30;;;-2.30;99.90;;;;;;5029680;28;20982;-65
2022/03/05 02:38:19;;;;;;;19.00;12.00;;;-2.20;99.90;;;;;;5030013;28;20527;-65
2022/03/05 02:40:47;;;;;;;23.93;13.37;;;-2.20;99.90;;;;;;5029971;28;20479;-67
2022/03/05 02:43:15;;;;;;;19.87;12.50;;;-2.10;99.90;;;;;;5033899;28;20990;-66
2022/03/05 02:45:42;;;;;;;21.00;14.77;;;-2.10;99.90;;;;;;5033324;28;21060;-65
2022/03/05 02:48:10;;;;;;;23.50;13.30;;;-2.10;99.90;;;;;;5034273;28;20459;-66
2022/03/05 02:50:38;;;;;;;18.80;12.63;;;-2.10;99.90;;;;;;5033561;28;20950;-65
2022/03/05 02:53:05;;;;;;;15.50;11.23;;;-2.10;99.90;;;;;;5033761;28;20965;-65
2022/03/05 02:55:34;;;;;;;19.90;12.80;;;-2.00;99.90;;;;;;5033678;28;20437;-65
2022/03/05 02:58:01;;;;;;;18.43;11.67;;;-2.00;99.90;;;;;;5033573;28;20825;-65
2022/03/05 03:00:29;;;;;;;17.17;12.37;;;-2.00;99.90;;;;;;5033932;28;20480;-65
2022/03/05 03:02:56;;;;;;;18.93;13.10;;;-2.00;99.90;;;;;;5033680;28;20447;-65
2022/03/05 03:05:23;;;;;;;20.33;12.73;;;-2.00;99.90;;;;;;5033227;28;20480;-65
2022/03/05 03:07:49;;;;;;;22.50;12.20;;;-2.00;99.90;;;;;;5033673;28;20452;-65
2022/03/05 03:10:17;;;;;;;21.00;13.40;;;-2.00;99.90;;;;;;5033183;28;20437;-65
2022/03/05 03:12:45;;;;;;;20.07;10.03;;;-2.10;99.90;;;;;;5033034;28;20951;-65
2022/03/05 03:15:13;;;;;;;19.23;11.67;;;-2.10;99.90;;;;;;5032867;28;20464;-66
2022/03/05 03:17:41;;;;;;;17.63;12.10;;;-2.10;99.90;;;;;;5032991;28;20445;-64
2022/03/05 03:20:10;;;;;;;16.37;11.30;;;-2.10;99.90;;;;;;5032817;28;20567;-65
2022/03/05 03:22:36;;;;;;;18.13;12.50;;;-2.10;99.90;;;;;;5032799;28;20444;-65
2022/03/05 03:25:04;;;;;;;18.57;13.03;;;-2.20;99.90;;;;;;5032627;28;20488;-65
2022/03/05 03:27:31;;;;;;;18.97;12.60;;;-2.30;99.90;;;;;;5032523;28;20477;-65
2022/03/05 03:29:59;;;;;;;20.73;12.20;;;-2.30;99.90;;;;;;5032867;28;20883;-66
2022/03/05 03:32:26;;;;;;;22.50;12.47;;;-2.20;99.90;;;;;;5032946;28;20445;-65
2022/03/05 03:34:53;;;;;;;18.50;12.27;;;-2.10;99.90;;;;;;5032575;28;20449;-65
2022/03/05 03:37:19;;;;;;;22.70;14.27;;;-2.20;99.90;;;;;;5032586;28;20444;-65
2022/03/05 03:39:46;;;;;;;18.17;13.33;;;-2.30;99.90;;;;;;5032516;28;20981;-65
2022/03/05 03:42:14;;;;;;;16.93;11.60;;;-2.40;99.90;;;;;;5032416;28;20484;-65
2022/03/05 03:44:41;;;;;;;22.87;12.57;;;-2.50;99.90;;;;;;5032308;28;20485;-65
2022/03/05 03:47:09;;;;;;;16.70;12.50;;;-2.50;99.90;;;;;;5032547;28;20532;-65
2022/03/05 03:49:36;;;;;;;21.20;12.70;;;-2.60;99.90;;;;;;5032631;28;20531;-66
2022/03/05 03:52:04;;;;;;;15.57;12.20;;;-2.70;99.90;;;;;;5031924;28;20993;-65
2022/03/05 03:54:31;;;;;;;20.67;12.83;;;-2.60;99.90;;;;;;5032145;28;20939;-65
2022/03/05 03:56:57;;;;;;;21.00;13.13;;;-2.70;99.90;;;;;;5032567;28;20967;-65
2022/03/05 03:59:24;;;;;;;20.80;14.57;;;-2.70;99.90;;;;;;5032520;28;20456;-65
2022/03/05 04:01:51;;;;;;;23.03;14.10;;;-2.70;99.90;;;;;;5032548;28;20469;-66
2022/03/05 04:04:20;;;;;;;17.70;12.73;;;-2.60;99.90;;;;;;5031869;28;20507;-66
2022/03/05 04:09:31;;;;;;;15.63;11.90;;;-2.70;99.90;;;;;;5032321;28;20419;-67
2022/03/05 04:11:58;;;;;;;19.77;11.50;;;-2.70;99.90;;;;;;5032469;28;20481;-65
2022/03/05 04:14:24;;;;;;;16.30;11.37;;;-2.80;99.90;;;;;;5032053;28;20451;-65
2022/03/05 04:16:51;;;;;;;19.10;12.20;;;-2.80;99.90;;;;;;5031969;28;20453;-65
2022/03/05 04:19:19;;;;;;;19.47;12.77;;;-2.80;99.90;;;;;;5032172;28;20449;-64
2022/03/05 04:21:46;;;;;;;17.27;11.37;;;-2.90;99.90;;;;;;5031777;28;20475;-66
2022/03/05 04:24:13;;;;;;;19.73;13.50;;;-3.00;99.90;;;;;;5031826;28;20575;-65
2022/03/05 04:26:40;;;;;;;21.23;13.17;;;-2.90;99.90;;;;;;5032119;28;20441;-65
2022/03/05 04:29:07;;;;;;;17.47;11.70;;;-3.00;99.90;;;;;;5031800;28;20452;-65
2022/03/05 04:31:33;;;;;;;20.00;12.33;;;-3.00;99.90;;;;;;5031423;28;20556;-65
2022/03/05 04:34:01;;;;;;;18.57;12.03;;;-3.00;99.90;;;;;;5030907;28;20477;-65
2022/03/05 04:36:29;;;;;;;21.00;13.17;;;-3.00;99.90;;;;;;5031186;28;20908;-65
2022/03/05 04:38:55;;;;;;;19.50;12.60;;;-3.00;99.90;;;;;;5031104;28;20561;-66
2022/03/05 04:41:22;;;;;;;19.63;12.00;;;-3.10;99.90;;;;;;5031069;28;20475;-65
2022/03/05 04:43:49;;;;;;;16.00;11.97;;;-3.10;99.90;;;;;;5031812;28;20915;-65
2022/03/05 04:46:16;;;;;;;17.40;11.80;;;-3.20;99.90;;;;;;5031376;28;20476;-65
2022/03/05 04:48:43;;;;;;;18.47;11.90;;;-3.20;99.90;;;;;;5031758;28;20441;-65
2022/03/05 04:51:10;;;;;;;15.40;10.47;;;-3.20;99.90;;;;;;5031550;28;20990;-65
2022/03/05 04:53:38;;;;;;;21.27;11.73;;;-3.20;99.90;;;;;;5031531;28;20452;-65
2022/03/05 04:56:05;;;;;;;20.03;13.10;;;-3.10;99.90;;;;;;5031697;28;20472;-65
2022/03/05 04:58:32;;;;;;;18.73;12.33;;;-3.20;99.90;;;;;;5032834;28;20527;-65
2022/03/05 05:00:59;;;;;;;19.67;12.63;;;-3.20;99.90;;;;;;5032803;28;20472;-65
2022/03/05 05:03:26;;;;;;;21.10;12.97;;;-3.30;99.90;;;;;;5032561;28;20515;-65
2022/03/05 05:05:53;;;;;;;18.77;12.83;;;-3.30;99.90;;;;;;5031959;28;20495;-65
2022/03/05 05:08:20;;;;;;;22.03;13.20;;;-3.40;99.90;;;;;;5032489;28;20448;-65
2022/03/05 05:10:48;;;;;;;18.87;12.27;;;-3.40;99.90;;;;;;5032081;28;20475;-64
2022/03/05 05:13:15;;;;;;;19.63;12.50;;;-3.40;99.90;;;;;;5032549;28;20532;-65
2022/03/05 05:15:41;;;;;;;20.07;14.37;;;-3.50;99.90;;;;;;5031362;28;20441;-65
2022/03/05 05:18:08;;;;;;;21.57;14.17;;;-3.50;99.90;;;;;;5031194;28;20453;-65
2022/03/05 05:20:35;;;;;;;19.40;12.33;;;-3.60;99.90;;;;;;5030983;28;20461;-65
2022/03/05 05:23:02;;;;;;;17.93;12.30;;;-3.50;99.90;;;;;;5030924;28;20817;-65
2022/03/05 05:25:29;;;;;;;20.40;12.17;;;-3.50;99.90;;;;;;5030827;28;20573;-65
2022/03/05 05:27:58;;;;;;;17.80;12.63;;;-3.40;99.90;;;;;;5030947;28;20820;-65
2022/03/05 05:30:24;;;;;;;18.13;12.67;;;-3.30;99.90;;;;;;5030748;28;20469;-65
2022/03/05 05:32:51;;;;;;;18.00;12.10;;;-3.30;99.90;;;;;;5030833;28;20524;-65
2022/03/05 05:35:18;;;;;;;22.27;12.53;;;-3.40;99.90;;;;;;5030527;28;20468;-65
2022/03/05 05:37:45;;;;;;;19.60;11.93;;;-3.40;99.90;;;;;;5030594;28;20449;-65
2022/03/05 05:40:12;;;;;;;18.23;12.07;;;-3.40;99.90;;;;;;5030791;28;20436;-65
2022/03/05 05:42:39;;;;;;;24.50;13.03;;;-3.40;99.90;;;;;;5030795;28;20914;-65
2022/03/05 05:45:09;;;;;;;18.60;11.90;;;-3.40;99.90;;;;;;5030276;28;21018;-65
2022/03/05 05:47:36;;;;;;;22.27;12.47;;;-3.40;99.90;;;;;;5030576;28;20463;-67
2022/03/05 05:50:03;;;;;;;22.17;12.73;;;-3.30;99.90;;;;;;5030602;28;20531;-65
2022/03/05 05:52:30;;;;;;;16.40;11.33;;;-3.40;99.90;;;;;;5030549;28;20445;-65
2022/03/05 05:54:57;;;;;;;22.43;12.07;;;-3.30;99.90;;;;;;5030393;28;20524;-65
2022/03/05 05:57:24;;;;;;;16.90;12.03;;;-3.40;99.90;;;;;;5030348;28;20447;-65
2022/03/05 05:59:50;;;;;;;21.43;13.47;;;-3.30;99.90;;;;;;5029832;28;20509;-65
2022/03/05 06:02:19;;;;;;;20.57;13.87;;;-3.40;99.90;;;;;;5030229;28;20991;-66
2022/03/05 06:04:45;;;;;;;22.90;13.73;;;-3.30;99.90;;;;;;5029930;28;20483;-65
2022/03/05 06:07:12;;;;;;;20.90;12.37;;;-3.30;99.90;;;;;;5029918;28;20471;-65
2022/03/05 06:09:39;;;;;;;17.30;12.13;;;-3.40;99.90;;;;;;5029978;28;20995;-65
2022/03/05 06:12:07;;;;;;;22.67;14.07;;;-3.50;99.90;;;;;;5029688;28;20465;-66
2022/03/05 06:14:34;;;;;;;22.57;13.40;;;-3.40;99.90;;;;;;5029527;28;20523;-65
2022/03/05 06:17:00;;;;;;;18.47;12.60;;;-3.30;99.90;;;;;;5033375;28;20993;-65
2022/03/05 06:19:28;;;;;;;20.80;13.30;;;-3.30;99.90;;;;;;5033978;28;20437;-65
2022/03/05 06:21:55;;;;;;;17.60;13.17;;;-3.20;99.90;;;;;;5033930;28;20468;-65
2022/03/05 06:24:22;;;;;;;19.27;12.50;;;-3.30;99.90;;;;;;5033758;28;20527;-65
2022/03/05 06:26:49;;;;;;;18.60;12.07;;;-3.20;99.90;;;;;;5033923;28;20984;-65
2022/03/05 06:29:16;;;;;;;20.53;12.47;;;-3.20;99.90;;;;;;5033820;28;20818;-65
2022/03/05 06:31:42;;;;;;;21.20;12.97;;;-3.20;99.90;;;;;;5033611;28;20560;-65
2022/03/05 06:34:09;;;;;;;19.73;13.53;;;-3.20;99.90;;;;;;5033631;28;20463;-65
2022/03/05 06:36:37;;;;;;;23.63;14.83;;;-3.20;99.90;;;;;;5034044;28;20444;-65
2022/03/05 06:39:04;;;;;;;25.90;13.50;;;-3.10;99.90;;;;;;5034119;28;20524;-65
2022/03/05 06:41:31;;;;;;;17.30;11.60;;;-3.00;99.90;;;;;;5033997;28;20473;-65
2022/03/05 06:43:58;;;;;;;22.37;12.90;;;-3.00;99.90;;;;;;5033712;28;20449;-65
2022/03/05 06:46:25;;;;;;;27.30;14.70;;;-2.90;99.90;;;;;;5033687;28;20576;-65
2022/03/05 06:48:52;;;;;;;19.50;13.47;;;-2.80;99.90;;;;;;5033817;28;20480;-65
2022/03/05 06:51:19;;;;;;;21.20;13.53;;;-2.70;99.90;;;;;;5033640;28;20476;-65
2022/03/05 06:53:47;;;;;;;18.83;13.80;;;-2.60;99.90;;;;;;5033729;28;20445;-66
2022/03/05 06:56:14;;;;;;;19.53;13.93;;;-2.60;99.90;;;;;;5033396;28;21042;-65
2022/03/05 06:58:41;;;;;;;20.07;13.60;;;-2.50;99.90;;;;;;5033740;28;20828;-65
2022/03/05 07:01:07;;;;;;;17.10;12.53;;;-2.40;99.90;;;;;;5033441;28;20551;-65
2022/03/05 07:03:34;;;;;;;23.63;15.20;;;-2.40;99.90;;;;;;5033464;28;20452;-66
2022/03/05 07:06:01;;;;;;;26.80;13.93;;;-2.30;99.90;;;;;;5033159;28;20485;-66
2022/03/05 07:08:28;;;;;;;21.43;13.63;;;-2.30;99.90;;;;;;5033512;28;20453;-65
2022/03/05 07:10:56;;;;;;;23.57;14.17;;;-2.10;99.90;;;;;;5032879;28;20500;-64
2022/03/05 07:13:23;;;;;;;20.73;13.83;;;-2.10;99.90;;;;;;5033399;28;20539;-64
2022/03/05 07:15:50;;;;;;;19.93;13.10;;;-2.00;99.90;;;;;;5033127;28;20448;-64
2022/03/05 07:18:16;;;;;;;22.03;12.80;;;-1.80;99.90;;;;;;5032992;28;20441;-64
2022/03/05 07:20:43;;;;;;;23.10;14.20;;;-1.60;99.90;;;;;;5032629;28;20506;-64
2022/03/05 07:23:10;;;;;;;20.83;14.40;;;-1.50;99.90;;;;;;5032719;28;20837;-65
2022/03/05 07:25:39;;;;;;;24.50;14.80;;;-1.40;99.90;;;;;;5032057;28;20495;-65
2022/03/05 07:28:08;;;;;;;24.67;14.20;;;-1.30;99.90;;;;;;5031744;28;20474;-65
2022/03/05 07:30:35;;;;;;;17.17;11.93;;;-1.20;99.90;;;;;;5032116;28;20569;-65
2022/03/05 07:33:03;;;;;;;20.77;14.30;;;-1.00;99.90;;;;;;5032457;28;20536;-65
2022/03/05 07:35:30;;;;;;;22.13;13.77;;;-0.60;99.90;;;;;;5032086;28;20444;-65
2022/03/05 07:37:57;;;;;;;23.87;15.50;;;-0.20;99.90;;;;;;5032413;28;20530;-65
2022/03/05 07:40:24;;;;;;;17.30;12.87;;;0.30;99.90;;;;;;5032256;28;20559;-65
2022/03/05 07:42:50;;;;;;;19.07;14.20;;;0.50;99.90;;;;;;5032128;28;21154;-65
2022/03/05 07:45:18;;;;;;;20.43;13.70;;;0.60;99.90;;;;;;5031677;28;20472;-65
2022/03/05 07:47:47;;;;;;;19.60;13.57;;;0.60;99.90;;;;;;5031977;28;20891;-64
2022/03/05 07:50:14;;;;;;;19.00;12.33;;;0.60;99.90;;;;;;5031814;28;20539;-65
2022/03/05 07:52:41;;;;;;;19.60;13.00;;;0.60;99.90;;;;;;5031569;28;20459;-65
2022/03/05 07:55:08;;;;;;;20.63;13.50;;;0.60;99.90;;;;;;5031759;28;20448;-65
2022/03/05 07:57:36;;;;;;;18.90;12.63;;;0.50;99.90;;;;;;5031879;28;20505;-64
2022/03/05 08:00:05;;;;;;;18.77;12.70;;;0.60;99.90;;;;;;5031717;28;20452;-65
2022/03/05 08:02:33;;;;;;;24.77;13.83;;;0.70;99.90;;;;;;5031679;28;20437;-64
2022/03/05 08:05:00;;;;;;;21.50;13.67;;;0.80;99.90;;;;;;5031210;28;20498;-65
2022/03/05 08:07:27;;;;;;;17.80;11.03;;;0.90;99.90;;;;;;5031550;28;20532;-65
2022/03/05 08:09:54;;;;;;;19.50;13.07;;;1.10;99.90;;;;;;5031968;28;20445;-65
2022/03/05 08:12:21;;;;;;;19.33;13.50;;;1.20;99.90;;;;;;5031615;28;20461;-65
2022/03/05 08:14:48;;;;;;;15.87;12.57;;;1.30;99.90;;;;;;5031136;28;20445;-65
2022/03/05 08:17:15;;;;;;;19.83;12.73;;;1.50;99.90;;;;;;5031736;28;20487;-65
2022/03/05 08:19:43;;;;;;;22.50;14.97;;;1.60;99.90;;;;;;5031402;28;20444;-65
2022/03/05 08:22:10;;;;;;;19.80;14.73;;;1.70;99.90;;;;;;5031291;28;20551;-65
2022/03/05 08:24:36;;;;;;;20.57;13.67;;;1.90;99.90;;;;;;5031396;28;20445;-65
2022/03/05 08:27:04;;;;;;;20.90;14.90;;;2.00;99.90;;;;;;5031451;28;20480;-64
2022/03/05 08:29:31;;;;;;;24.37;15.20;;;2.20;99.90;;;;;;5031575;28;20451;-64
2022/03/05 08:31:58;;;;;;;20.57;13.93;;;2.30;99.90;;;;;;5031337;28;20476;-64
2022/03/05 08:34:25;;;;;;;19.17;13.20;;;2.40;99.90;;;;;;5030952;28;20939;-64
2022/03/05 08:36:53;;;;;;;20.83;14.60;;;2.60;99.90;;;;;;5031511;28;20449;-64
2022/03/05 08:39:20;;;;;;;17.67;13.13;;;2.80;99.90;;;;;;5031414;28;20484;-65
2022/03/05 08:41:47;;;;;;;21.50;14.30;;;3.20;99.90;;;;;;5031005;28;20978;-64
2022/03/05 08:44:13;;;;;;;19.13;13.73;;;3.50;99.90;;;;;;5031140;28;20455;-64
2022/03/05 08:46:41;;;;;;;17.00;12.47;;;3.90;99.90;;;;;;5030730;28;20489;-66
2022/03/05 08:49:08;;;;;;;20.70;15.03;;;4.20;99.90;;;;;;5031115;28;20457;-66
2022/03/05 08:51:35;;;;;;;16.37;11.80;;;4.50;99.90;;;;;;5031233;28;20465;-65
2022/03/05 08:54:03;;;;;;;22.00;14.17;;;4.40;99.90;;;;;;5030886;28;20536;-65
2022/03/05 08:56:30;;;;;;;22.73;14.73;;;4.30;99.90;;;;;;5030812;28;20459;-65
2022/03/05 08:58:56;;;;;;;19.33;13.30;;;4.40;99.90;;;;;;5030670;28;20449;-65
2022/03/05 09:01:23;;;;;;;19.93;13.00;;;4.70;99.90;;;;;;5030455;28;20473;-65
2022/03/05 09:03:50;;;;;;;21.17;14.07;;;4.70;99.90;;;;;;5030659;28;20457;-66
2022/03/05 09:06:17;;;;;;;19.00;13.47;;;5.00;99.90;;;;;;5030461;28;20488;-64
2022/03/05 09:08:44;;;;;;;18.27;12.93;;;5.40;99.90;;;;;;5030374;28;21057;-65
2022/03/05 09:11:12;;;;;;;18.63;13.67;;;5.70;99.90;;;;;;5030309;28;20473;-65
2022/03/05 09:13:39;;;;;;;19.00;13.37;;;6.10;99.90;;;;;;5030638;28;20989;-65
2022/03/05 09:16:06;;;;;;;16.43;12.87;;;6.40;99.90;;;;;;5030400;28;20449;-64
2022/03/05 09:18:33;;;;;;;17.63;13.13;;;6.80;99.90;;;;;;5030715;28;20531;-66
2022/03/05 09:21:00;;;;;;;17.13;13.20;;;7.10;99.70;;;;;;5030352;28;20559;-66
2022/03/05 09:23:27;;;;;;;18.03;14.70;;;7.30;98.80;;;;;;5030383;28;20445;-66
2022/03/05 09:25:53;;;;;;;16.40;12.70;;;7.60;98.30;;;;;;5029822;28;20564;-66
2022/03/05 09:28:22;;;;;;;16.70;12.47;;;7.70;97.70;;;;;;5030433;28;20563;-66
2022/03/05 09:30:48;;;;;;;14.07;11.60;;;7.70;96.60;;;;;;5030221;28;20560;-65
2022/03/05 09:33:15;;;;;;;19.30;13.30;;;7.70;96.00;;;;;;5030412;28;20449;-66
2022/03/05 09:35:43;;;;;;;18.37;11.70;;;7.70;96.40;;;;;;5029678;28;20437;-65
2022/03/05 09:38:11;;;;;;;15.63;13.17;;;7.80;95.20;;;;;;5030180;28;20444;-65
2022/03/05 09:40:38;;;;;;;14.60;11.40;;;7.80;94.90;;;;;;5029859;28;20464;-66
2022/03/05 09:43:05;;;;;;;16.83;11.23;;;8.00;94.60;;;;;;5029877;28;20453;-66
2022/03/05 09:45:34;;;;;;;14.57;11.80;;;8.20;94.70;;;;;;5029696;28;20558;-64
2022/03/05 09:48:00;;;;;;;15.87;11.70;;;8.30;94.00;;;;;;5029987;28;20455;-66
2022/03/05 09:50:29;;;;;;;14.83;12.60;;;8.50;93.90;;;;;;5029677;28;20465;-64
2022/03/05 09:52:56;;;;;;;16.07;11.77;;;8.70;93.40;;;;;;5030029;28;20444;-64
2022/03/05 09:55:23;;;;;;;16.20;12.57;;;8.90;92.10;;;;;;5029385;28;20520;-64
2022/03/05 09:57:50;;;;;;;14.60;11.03;;;8.90;91.60;;;;;;5030001;28;20477;-65
2022/03/05 10:00:18;;;;;;;13.53;10.97;;;9.00;91.80;;;;;;5029964;28;20445;-65
2022/03/05 10:02:46;;;;;;;14.93;11.13;;;9.10;91.10;;;;;;5029881;28;20540;-65
2022/03/05 10:05:24;;;;;;;14.30;11.00;;;9.40;90.50;;;;;;5029770;28;20453;-66
2022/03/05 10:08:12;;;;;;;12.83;9.87;;;9.50;88.80;;;;;;5029820;28;21049;-65
2022/03/05 10:10:50;;;;;;;14.03;11.20;;;9.70;85.80;;;;;;5029857;28;20479;-64
2022/03/05 10:13:19;;;;;;;14.40;10.77;;;9.80;86.80;;;;;;5029831;28;20536;-65
2022/03/05 10:15:47;;;;;;;12.40;9.50;;;10.10;84.90;;;;;;5029794;28;20553;-65
2022/03/05 10:18:16;;;;;;;13.33;10.80;;;10.20;83.00;;;;;;5029822;28;20523;-65
2022/03/05 10:20:50;;;;;;;13.30;10.57;;;10.30;79.60;;;;;;5030131;28;20453;-65
2022/03/05 10:23:18;;;;;;;12.73;10.20;;;10.40;81.40;;;;;;5030336;28;20810;-65
2022/03/05 10:25:47;;;;;;;14.20;8.00;;;10.70;80.00;;;;;;5029441;28;20476;-64
2022/03/05 10:28:15;;;;;;;8.90;7.87;;;10.60;74.90;;;;;;5029731;28;20539;-65
2022/03/05 10:30:44;;;;;;;10.20;8.63;;;10.60;77.60;;;;;;5029398;28;21020;-64
2022/03/05 10:33:27;;;;;;;10.63;8.63;;;10.80;77.30;;;;;;5029261;28;20536;-66
2022/03/05 10:35:54;;;;;;;11.50;10.00;;;11.50;77.10;;;;;;5029715;28;20468;-64
2022/03/05 10:38:21;;;;;;;12.47;9.97;;;11.90;72.80;;;;;;5029644;28;20556;-64
2022/03/05 10:40:55;;;;;;;10.33;7.67;;;12.60;73.40;;;;;;5029495;28;20472;-65
2022/03/05 10:43:22;;;;;;;11.47;8.97;;;13.40;71.70;;;;;;5029449;28;20464;-65
2022/03/05 10:45:55;;;;;;;10.90;9.10;;;13.60;68.20;;;;;;5029407;28;20507;-65
2022/03/05 10:48:28;;;;;;;11.03;9.60;;;13.70;66.80;;;;;;5029631;28;20484;-65
2022/03/05 10:51:00;;;;;;;10.03;8.80;;;13.90;65.90;;;;;;5029442;28;20555;-65
2022/03/05 10:53:41;;;;;;;14.27;9.60;;;13.70;65.00;;;;;;5029321;28;20443;-64
2022/03/05 10:56:21;;;;;;;12.43;8.87;;;13.50;63.40;;;;;;5029138;28;20524;-65
2022/03/05 10:59:00;;;;;;;9.93;8.93;;;13.40;63.70;;;;;;5029520;28;20455;-64
2022/03/05 11:01:28;;;;;;;11.23;8.87;;;13.80;64.10;;;;;;5029435;28;20853;-66
2022/03/05 11:03:57;;;;;;;12.60;9.53;;;13.80;62.90;;;;;;5032569;28;20963;-65
2022/03/05 11:06:24;;;;;;;9.63;8.13;;;14.00;62.80;;;;;;5033092;28;20488;-65
2022/03/05 11:11:37;;;;;;;13.40;10.50;;;14.10;60.30;;;;;;5030585;28;20798;-65
2022/03/05 11:14:05;;;;;;;13.07;10.60;;;14.20;59.60;;;;;;5032485;28;21063;-65
2022/03/05 11:16:32;;;;;;;11.60;9.97;;;14.40;58.70;;;;;;5033297;28;20839;-66
2022/03/05 11:19:01;;;;;;;11.00;9.70;;;14.70;58.80;;;;;;5035330;28;20447;-65
2022/03/05 11:21:29;;;;;;;11.03;9.20;;;15.40;59.60;;;;;;5034757;28;20955;-65
2022/03/05 11:23:57;;;;;;;12.00;9.10;;;15.50;58.20;;;;;;5034950;28;20463;-66
2022/03/05 11:26:24;;;;;;;10.40;9.30;;;15.60;56.90;;;;;;5034484;28;21006;-66
2022/03/05 11:28:52;;;;;;;10.20;8.70;;;15.80;57.10;;;;;;5035315;28;20503;-66
2022/03/05 11:31:21;;;;;;;11.93;9.40;;;16.10;56.80;;;;;;5039167;28;20495;-64
2022/03/05 11:33:51;;;;;;;12.20;9.60;;;16.00;55.90;;;;;;5040088;28;20490;-65
2022/03/05 11:36:35;;;;;;;12.13;9.73;;;15.00;55.00;;;;;;5036172;28;20475;-66
2022/03/05 11:39:17;;;;;;;14.80;11.07;;;13.70;56.40;;;;;;5036719;28;20461;-65
2022/03/05 11:42:01;;;;;;;11.57;9.80;;;13.10;58.80;;;;;;5036170;28;20530;-64
2022/03/05 11:44:30;;;;;;;11.07;8.80;;;12.70;57.00;;;;;;5035427;28;20447;-65
2022/03/05 11:47:22;;;;;;;10.60;8.30;;;10.70;59.70;;;;;;5035959;28;20489;-65
2022/03/05 11:50:19;;;;;;;12.90;9.87;;;10.20;62.90;;;;;;5019394;28;20463;-65
2022/03/05 11:53:08;;;;;;;13.60;9.63;;;9.70;65.20;;;;;;5032624;28;20459;-64
2022/03/05 11:55:45;;;;;;;11.60;8.80;;;9.50;67.70;;;;;;5032596;28;20471;-64
2022/03/05 11:58:31;;;;;;;10.60;8.20;;;10.30;66.30;;;;;;5032562;28;20766;-65
2022/03/05 12:00:58;;;;;;;11.00;9.30;;;12.10;63.40;;;;;;5032439;28;20464;-65
2022/03/05 12:03:39;;;;;;;11.13;9.70;;;13.70;58.10;;;;;;5032681;28;20499;-65
2022/03/05 12:06:07;;;;;;;11.57;10.03;;;14.50;56.10;;;;;;5032587;28;20503;-65
2022/03/05 12:08:54;;;;;;;12.73;9.70;;;14.70;58.10;;;;;;5032427;28;20495;-65
2022/03/05 12:11:22;;;;;;;11.30;9.03;;;15.10;56.50;;;;;;5032372;28;20564;-65
2022/03/05 12:13:54;;;;;;;12.03;10.67;;;15.30;55.00;;;;;;5031890;28;20515;-66
2022/03/05 12:16:24;;;;;;;13.07;10.23;;;15.90;54.80;;;;;;5031622;28;20893;-65
2022/03/05 12:18:52;;;;;;;9.47;8.47;;;15.20;53.20;;;;;;5031878;28;20453;-65
2022/03/05 12:21:29;;;;;;;9.63;8.60;;;15.10;53.90;;;;;;5031785;28;20469;-65
2022/03/05 12:24:02;;;;;;;9.43;8.33;;;15.50;53.90;;;;;;5031724;28;20452;-65
2022/03/05 12:26:40;;;;;;;11.00;8.93;;;14.60;52.20;;;;;;5031528;28;20511;-65
2022/03/05 12:29:08;;;;;;;8.17;7.10;;;14.20;53.70;;;;;;5031525;28;20452;-65
2022/03/05 12:31:39;;;;;;;8.63;7.57;;;14.80;53.60;;;;;;5031255;28;20503;-65
2022/03/05 12:34:06;;;;;;;8.40;7.40;;;16.20;52.20;;;;;;5031206;28;20524;-65
2022/03/05 12:36:34;;;;;;;6.90;6.10;;;17.10;51.10;;;;;;5031478;28;20455;-65
2022/03/05 12:39:02;;;;;;;9.40;8.00;;;17.40;49.40;;;;;;5031397;28;20453;-65
2022/03/05 12:41:29;;;;;;;7.87;6.87;;;17.60;48.60;;;;;;5031067;28;20469;-65